METAR AND TAF INFORMATION
METAR FOR AGGC
ADDS - METARS form results

(1750 UTC 29 September 2020)
Data provider http://aviationweather.gov/metar/data/
 
Forecast for: AGGC (CHOISEUL BAY , SB)
Text: TAF AGGC 291710Z 2918/3018 11008KT 9999 SCT017
Forecast period: 1800 UTC 29 September 2020 to 1800 UTC 30 September 2020
Forecast type: FROM: standard forecast or significant change
Winds: from the ESE (110 degrees) at 9 MPH (8 knots; 4.1 m/s)
Visibility: 6 or more miles (10+ km)
Ceiling: at least 12,000 feet AGL
Clouds: scattered clouds at 1700 feet AGL
Weather: no significant weather forecast for this period
Text: PROB40 INTER 3000/3006 5000 TSSH BKN015 FEW016CB
Forecast period: 0000 to 0600 UTC 30 September 2020
Forecast type: TEMPORARY: The following changes expected for less than half the time period
Visibility: 3 miles (5 km)
Ceiling: 1500 feet AGL
Clouds: broken clouds at 1500 feet AGL
few clouds at 1600 feet AGL
Weather: SH TS  (showers, thunderstorm)

 AIRPORT MAP

 RUNWAY INFORMATION
Runway 13 Runway length 2164 ft Runway width 82 ft
Runway elevation 0 ft Runway displaced threshold 0 ft Runway heading 0
Runway 31 Runway length 2164 ft Runway width 82 ft
Runway elevation 0 ft Runway displaced threshold 0 ft Runway heading 0

 AIRPORT FREQUENCIES

 AIRPORT NEAR NAVIGATION AIDS



Powered by Virtual Airlines Manager [v2.6.2]